Terminal Aerodrome Forecast
Issued by NWS

Home | Current Version | Previous Version | Text Only | Print | Product List | Glossary On
Versions: 1 2 3 4 5 6 7 8 9 10 11 12 13 14 15 16 17 18
000
FTUS41 KRNK 241136
TAFLWB
TAF
KLWB 241136Z 2412/2512 VRB04KT P6SM BKN080 OVC200
     FM241500 21004KT P6SM BKN070 OVC200
     FM241800 21006KT P6SM OVC060
     FM242300 VRB04KT P6SM BKN050 OVC200=

USA.gov is the U.S. government's official web portal to all federal, state and local government web resources and services.